Wetterdaten: Woche 23.03.15 - 29.03.15 (KW13)
Datum Zeit Temperatur Luftfeuchte Luftdruck Niederschlag Windrichtung Sonnenschein Solar Wind
23.03.2015 00:00 4,2 C 91 % 1018,1 hPa 0,0 l/m NO 0,00 h 0 W/m 10,1 km/h (2 Bft)
23.03.2015 01:00 4,1 C 91 % 1017,8 hPa 0,0 l/m O-NO 0,00 h 0 W/m 8,8 km/h (2 Bft)
23.03.2015 02:00 4,1 C 91 % 1017,4 hPa 0,0 l/m N 0,00 h 0 W/m 1,9 km/h (1 Bft)
23.03.2015 03:00 4,0 C 92 % 1017,1 hPa 0,0 l/m N 0,00 h 0 W/m 1,7 km/h (1 Bft)
23.03.2015 04:00 3,9 C 92 % 1017,0 hPa 0,0 l/m N 0,00 h 0 W/m 0,9 km/h (0 Bft)
23.03.2015 05:00 3,8 C 92 % 1016,9 hPa 0,0 l/m N 0,00 h 0 W/m 0,7 km/h (0 Bft)
23.03.2015 06:00 3,8 C 93 % 1017,1 hPa 0,0 l/m N 0,00 h 8 W/m 0,3 km/h (0 Bft)
23.03.2015 07:00 3,8 C 93 % 1017,1 hPa 0,0 l/m N 0,00 h 23 W/m 1,2 km/h (1 Bft)
23.03.2015 08:00 4,1 C 94 % 1016,9 hPa 0,0 l/m N 0,00 h 56 W/m 0,1 km/h (0 Bft)
23.03.2015 09:00 4,9 C 92 % 1016,6 hPa 0,0 l/m O-NO 0,00 h 92 W/m 1,2 km/h (1 Bft)
23.03.2015 10:00 5,8 C 85 % 1016,3 hPa 0,0 l/m S-SW 0,00 h 113 W/m 6,0 km/h (2 Bft)
23.03.2015 11:00 6,5 C 82 % 1015,8 hPa 0,0 l/m S-SW 0,00 h 185 W/m 5,9 km/h (2 Bft)
23.03.2015 12:00 7,5 C 78 % 1015,1 hPa 0,0 l/m S-SW 0,42 h 443 W/m 8,6 km/h (2 Bft)
23.03.2015 13:00 9,4 C 70 % 1014,4 hPa 0,0 l/m S-SW 1,00 h 672 W/m 8,6 km/h (2 Bft)
23.03.2015 14:00 10,6 C 66 % 1013,4 hPa 0,0 l/m SO 1,00 h 585 W/m 8,7 km/h (2 Bft)
23.03.2015 15:00 11,2 C 64 % 1012,5 hPa 0,0 l/m SO 1,00 h 478 W/m 8,4 km/h (2 Bft)
23.03.2015 16:00 11,2 C 63 % 1011,8 hPa 0,0 l/m SO 1,00 h 313 W/m 5,9 km/h (2 Bft)
23.03.2015 17:00 10,7 C 65 % 1011,3 hPa 0,0 l/m O-SO 0,67 h 109 W/m 5,1 km/h (1 Bft)
23.03.2015 18:00 8,9 C 72 % 1011,0 hPa 0,0 l/m O-NO 0,00 h 14 W/m 1,6 km/h (1 Bft)
23.03.2015 19:00 6,5 C 82 % 1010,9 hPa 0,0 l/m N 0,00 h 0 W/m 1,7 km/h (1 Bft)
23.03.2015 20:00 5,2 C 86 % 1011,1 hPa 0,0 l/m N 0,00 h 0 W/m 0,5 km/h (0 Bft)
23.03.2015 21:00 4,3 C 87 % 1010,9 hPa 0,0 l/m N 0,00 h 0 W/m 0,4 km/h (0 Bft)
23.03.2015 22:00 3,3 C 88 % 1010,7 hPa 0,0 l/m N 0,00 h 0 W/m 0,7 km/h (0 Bft)
23.03.2015 23:00 2,4 C 89 % 1010,3 hPa 0,0 l/m N 0,00 h 0 W/m 0,0 km/h (0 Bft)
24.03.2015 00:00 1,5 C 89 % 1010,0 hPa 0,0 l/m N 0,00 h 0 W/m 0,0 km/h (0 Bft)
24.03.2015 01:00 0,8 C 90 % 1009,8 hPa 0,0 l/m N 0,00 h 0 W/m 0,3 km/h (0 Bft)
24.03.2015 02:00 0,2 C 91 % 1009,5 hPa 0,0 l/m N 0,00 h 0 W/m 0,0 km/h (0 Bft)
24.03.2015 03:00 -0,4 C 92 % 1009,3 hPa 0,0 l/m N 0,00 h 0 W/m 0,3 km/h (0 Bft)
24.03.2015 04:00 -0,4 C 94 % 1009,1 hPa 0,0 l/m N 0,00 h 0 W/m 0,0 km/h (0 Bft)
24.03.2015 05:00 -0,7 C 95 % 1008,9 hPa 0,0 l/m N 0,00 h 0 W/m 0,0 km/h (0 Bft)
24.03.2015 06:00 -0,7 C 95 % 1009,1 hPa 0,0 l/m N 0,00 h 12 W/m 0,0 km/h (0 Bft)
24.03.2015 07:00 -0,5 C 96 % 1009,1 hPa 0,0 l/m N 0,00 h 51 W/m 0,0 km/h (0 Bft)
24.03.2015 08:00 0,8 C 98 % 1009,1 hPa 0,0 l/m N 0,33 h 176 W/m 0,9 km/h (0 Bft)
24.03.2015 09:00 4,1 C 98 % 1008,9 hPa 0,0 l/m S 1,00 h 413 W/m 4,3 km/h (1 Bft)
24.03.2015 10:00 9,3 C 79 % 1008,7 hPa 0,0 l/m S 1,00 h 518 W/m 6,8 km/h (2 Bft)
24.03.2015 11:00 11,9 C 66 % 1007,9 hPa 0,0 l/m S 1,00 h 577 W/m 8,3 km/h (2 Bft)
24.03.2015 12:00 14,0 C 54 % 1007,3 hPa 0,0 l/m SO 1,00 h 622 W/m 10,8 km/h (2 Bft)
24.03.2015 13:00 14,7 C 49 % 1006,7 hPa 0,0 l/m SW 1,00 h 574 W/m 11,1 km/h (2 Bft)
24.03.2015 14:00 15,4 C 43 % 1006,1 hPa 0,0 l/m W 1,00 h 549 W/m 13,7 km/h (3 Bft)
24.03.2015 15:00 16,1 C 41 % 1005,4 hPa 0,0 l/m SW 1,00 h 481 W/m 13,3 km/h (3 Bft)
24.03.2015 16:00 16,1 C 41 % 1005,1 hPa 0,0 l/m SW 1,00 h 336 W/m 10,7 km/h (2 Bft)
24.03.2015 17:00 15,1 C 44 % 1004,7 hPa 0,0 l/m SW 0,83 h 141 W/m 3,1 km/h (1 Bft)
24.03.2015 18:00 12,3 C 55 % 1004,7 hPa 0,0 l/m N 0,00 h 15 W/m 0,0 km/h (0 Bft)
24.03.2015 19:00 9,4 C 65 % 1005,0 hPa 0,0 l/m N 0,00 h 0 W/m 0,0 km/h (0 Bft)
24.03.2015 20:00 7,7 C 71 % 1004,9 hPa 0,0 l/m N 0,00 h 0 W/m 0,1 km/h (0 Bft)
24.03.2015 21:00 7,3 C 73 % 1004,8 hPa 0,0 l/m N 0,00 h 0 W/m 0,9 km/h (0 Bft)
24.03.2015 22:00 8,3 C 70 % 1004,4 hPa 0,0 l/m N 0,00 h 0 W/m 0,9 km/h (0 Bft)
24.03.2015 23:00 7,4 C 73 % 1004,1 hPa 0,0 l/m N 0,00 h 0 W/m 0,0 km/h (0 Bft)
25.03.2015 00:00 6,2 C 76 % 1004,0 hPa 0,0 l/m N 0,00 h 0 W/m 0,3 km/h (0 Bft)
25.03.2015 01:00 4,8 C 80 % 1003,7 hPa 0,0 l/m N 0,00 h 0 W/m 0,3 km/h (0 Bft)
25.03.2015 02:00 3,9 C 85 % 1003,5 hPa 0,0 l/m SW 0,00 h 0 W/m 1,3 km/h (1 Bft)
25.03.2015 03:00 3,1 C 86 % 1003,0 hPa 0,0 l/m N 0,00 h 0 W/m 0,9 km/h (0 Bft)
25.03.2015 04:00 2,6 C 87 % 1002,6 hPa 0,0 l/m N 0,00 h 0 W/m 0,4 km/h (0 Bft)
25.03.2015 05:00 2,6 C 91 % 1002,2 hPa 0,0 l/m SW 0,00 h 0 W/m 3,1 km/h (1 Bft)
25.03.2015 06:00 2,6 C 92 % 1002,3 hPa 0,0 l/m SW 0,00 h 19 W/m 2,5 km/h (1 Bft)
25.03.2015 07:00 3,4 C 94 % 1002,0 hPa 0,0 l/m W-SW 0,17 h 100 W/m 8,2 km/h (2 Bft)
25.03.2015 08:00 5,5 C 90 % 1001,7 hPa 0,0 l/m N-NW 1,00 h 278 W/m 7,9 km/h (2 Bft)
25.03.2015 09:00 8,1 C 82 % 1001,4 hPa 0,0 l/m N 1,00 h 434 W/m 7,5 km/h (2 Bft)
25.03.2015 10:00 10,4 C 70 % 1001,1 hPa 0,0 l/m N-NO 1,00 h 549 W/m 8,3 km/h (2 Bft)
25.03.2015 11:00 12,7 C 62 % 1000,4 hPa 0,0 l/m O-NO 0,75 h 418 W/m 9,8 km/h (2 Bft)
25.03.2015 12:00 14,3 C 53 % 999,7 hPa 0,0 l/m NO 0,33 h 367 W/m 11,1 km/h (2 Bft)
25.03.2015 13:00 15,5 C 46 % 999,3 hPa 0,0 l/m O 0,00 h 299 W/m 10,5 km/h (2 Bft)
25.03.2015 14:00 15,8 C 45 % 999,1 hPa 0,0 l/m O-NO 0,00 h 211 W/m 10,5 km/h (2 Bft)
25.03.2015 15:00 15,3 C 50 % 999,1 hPa 0,0 l/m NO 0,00 h 131 W/m 9,9 km/h (2 Bft)
25.03.2015 16:00 14,9 C 48 % 999,1 hPa 0,0 l/m NO 0,00 h 69 W/m 6,9 km/h (2 Bft)
25.03.2015 17:00 12,7 C 65 % 999,5 hPa 0,0 l/m SO 0,00 h 28 W/m 6,6 km/h (2 Bft)
25.03.2015 18:00 11,5 C 69 % 1000,1 hPa 0,0 l/m N-NO 0,00 h 10 W/m 1,5 km/h (1 Bft)
25.03.2015 19:00 11,0 C 72 % 1000,5 hPa 0,0 l/m N-NO 0,00 h 0 W/m 10,9 km/h (2 Bft)
25.03.2015 20:00 10,4 C 77 % 1000,9 hPa 0,0 l/m N-NO 0,00 h 0 W/m 7,8 km/h (2 Bft)
25.03.2015 21:00 9,8 C 79 % 1001,2 hPa 0,0 l/m N 0,00 h 0 W/m 10,2 km/h (2 Bft)
25.03.2015 22:00 8,9 C 80 % 1001,7 hPa 0,0 l/m NW 0,00 h 0 W/m 10,2 km/h (2 Bft)
25.03.2015 23:00 8,0 C 82 % 1002,2 hPa 0,0 l/m W-NW 0,00 h 0 W/m 9,7 km/h (2 Bft)
26.03.2015 00:00 7,4 C 83 % 1002,7 hPa 0,0 l/m W-NW 0,00 h 0 W/m 8,9 km/h (2 Bft)
26.03.2015 01:00 6,7 C 85 % 1003,3 hPa 0,0 l/m NW 0,00 h 0 W/m 12,1 km/h (2 Bft)
26.03.2015 02:00 6,0 C 88 % 1003,9 hPa 0,0 l/m NW 0,00 h 0 W/m 11,0 km/h (2 Bft)
26.03.2015 03:00 5,3 C 91 % 1004,3 hPa 0,2 l/m NW 0,00 h 0 W/m 8,8 km/h (2 Bft)
26.03.2015 04:00 4,9 C 92 % 1005,2 hPa 1,0 l/m W 0,00 h 0 W/m 7,0 km/h (2 Bft)
26.03.2015 05:00 4,3 C 93 % 1006,0 hPa 1,2 l/m W 0,00 h 0 W/m 8,7 km/h (2 Bft)
26.03.2015 06:00 3,7 C 94 % 1006,7 hPa 0,6 l/m W 0,00 h 8 W/m 9,5 km/h (2 Bft)
26.03.2015 07:00 3,5 C 94 % 1007,1 hPa 0,2 l/m W-NW 0,00 h 27 W/m 12,0 km/h (2 Bft)
26.03.2015 08:00 3,6 C 95 % 1007,7 hPa 0,0 l/m W-NW 0,00 h 20 W/m 3,5 km/h (1 Bft)
26.03.2015 09:00 3,8 C 95 % 1008,1 hPa 0,2 l/m W 0,00 h 52 W/m 6,7 km/h (2 Bft)
26.03.2015 10:00 4,2 C 95 % 1008,4 hPa 0,0 l/m W 0,00 h 58 W/m 8,0 km/h (2 Bft)
26.03.2015 11:00 4,7 C 92 % 1008,3 hPa 0,0 l/m W 0,00 h 95 W/m 8,6 km/h (2 Bft)
26.03.2015 12:00 5,8 C 86 % 1008,2 hPa 0,0 l/m W-NW 0,00 h 140 W/m 11,8 km/h (2 Bft)
26.03.2015 13:00 5,8 C 87 % 1008,0 hPa 0,0 l/m W-SW 0,00 h 100 W/m 8,0 km/h (2 Bft)
26.03.2015 14:00 6,0 C 85 % 1008,0 hPa 0,0 l/m W 0,00 h 35 W/m 4,8 km/h (1 Bft)
26.03.2015 15:00 5,9 C 86 % 1008,0 hPa 0,0 l/m W 0,00 h 24 W/m 2,9 km/h (1 Bft)
26.03.2015 16:00 5,8 C 87 % 1008,5 hPa 0,0 l/m W 0,00 h 21 W/m 6,3 km/h (2 Bft)
26.03.2015 17:00 5,8 C 88 % 1008,8 hPa 0,0 l/m W 0,00 h 13 W/m 10,8 km/h (2 Bft)
26.03.2015 18:00 5,5 C 89 % 1009,3 hPa 0,0 l/m W-SW 0,00 h 5 W/m 10,3 km/h (2 Bft)
26.03.2015 19:00 5,2 C 88 % 1009,4 hPa 0,0 l/m SW 0,00 h 0 W/m 12,2 km/h (2 Bft)
26.03.2015 20:00 4,8 C 87 % 1009,9 hPa 0,0 l/m W-SW 0,00 h 0 W/m 14,5 km/h (3 Bft)
26.03.2015 21:00 4,8 C 84 % 1010,3 hPa 0,0 l/m W-SW 0,00 h 0 W/m 13,6 km/h (3 Bft)
26.03.2015 22:00 4,6 C 84 % 1010,9 hPa 0,2 l/m W 0,00 h 0 W/m 16,4 km/h (3 Bft)
26.03.2015 23:00 4,0 C 89 % 1011,0 hPa 0,0 l/m SW 0,00 h 0 W/m 13,6 km/h (3 Bft)
27.03.2015 00:00 3,7 C 92 % 1011,3 hPa 0,4 l/m W-SW 0,00 h 0 W/m 12,2 km/h (2 Bft)
27.03.2015 01:00 3,7 C 92 % 1011,9 hPa 0,2 l/m W-SW 0,00 h 0 W/m 16,0 km/h (3 Bft)
27.03.2015 02:00 3,6 C 92 % 1012,4 hPa 0,6 l/m W 0,00 h 0 W/m 12,6 km/h (3 Bft)
27.03.2015 03:00 3,5 C 93 % 1013,1 hPa 0,0 l/m W 0,00 h 0 W/m 9,8 km/h (2 Bft)
27.03.2015 04:00 3,3 C 94 % 1013,4 hPa 0,0 l/m SW 0,00 h 0 W/m 10,7 km/h (2 Bft)
27.03.2015 05:00 3,2 C 94 % 1014,2 hPa 0,0 l/m SW 0,00 h 0 W/m 8,4 km/h (2 Bft)
27.03.2015 06:00 3,3 C 94 % 1015,0 hPa 0,6 l/m W 0,00 h 8 W/m 13,0 km/h (3 Bft)
27.03.2015 07:00 3,3 C 95 % 1015,9 hPa 0,2 l/m W 0,08 h 55 W/m 10,2 km/h (2 Bft)
27.03.2015 08:00 4,6 C 93 % 1016,7 hPa 0,0 l/m W-SW 0,67 h 263 W/m 12,4 km/h (3 Bft)
27.03.2015 09:00 6,2 C 82 % 1017,2 hPa 0,0 l/m W 0,58 h 287 W/m 18,3 km/h (3 Bft)
27.03.2015 10:00 7,0 C 76 % 1017,7 hPa 0,0 l/m W-NW 0,50 h 377 W/m 17,3 km/h (3 Bft)
27.03.2015 11:00 7,4 C 67 % 1018,0 hPa 0,0 l/m W-NW 0,08 h 221 W/m 19,7 km/h (3 Bft)
27.03.2015 12:00 8,5 C 60 % 1018,0 hPa 0,0 l/m W 0,67 h 644 W/m 26,6 km/h (4 Bft)
27.03.2015 13:00 8,4 C 58 % 1018,1 hPa 0,0 l/m NW 0,00 h 168 W/m 19,6 km/h (3 Bft)
27.03.2015 14:00 8,4 C 58 % 1018,3 hPa 0,0 l/m W-NW 0,00 h 168 W/m 19,2 km/h (3 Bft)
27.03.2015 15:00 8,9 C 55 % 1018,5 hPa 0,0 l/m W-NW 0,17 h 205 W/m 22,0 km/h (4 Bft)
27.03.2015 16:00 8,9 C 55 % 1019,1 hPa 0,0 l/m W-NW 0,50 h 271 W/m 18,0 km/h (3 Bft)
27.03.2015 17:00 8,6 C 55 % 1019,8 hPa 0,0 l/m W-NW 0,50 h 112 W/m 14,8 km/h (3 Bft)
27.03.2015 18:00 7,3 C 60 % 1020,8 hPa 0,0 l/m W-NW 0,00 h 18 W/m 5,6 km/h (1 Bft)
27.03.2015 19:00 5,4 C 69 % 1021,6 hPa 0,0 l/m W-NW 0,00 h 0 W/m 2,7 km/h (1 Bft)
27.03.2015 20:00 4,0 C 75 % 1022,1 hPa 0,0 l/m N 0,00 h 0 W/m 1,3 km/h (1 Bft)
27.03.2015 21:00 3,0 C 77 % 1022,8 hPa 0,0 l/m N 0,00 h 0 W/m 2,5 km/h (1 Bft)
27.03.2015 22:00 2,8 C 79 % 1023,3 hPa 0,0 l/m W-NW 0,00 h 0 W/m 3,2 km/h (1 Bft)
27.03.2015 23:00 2,4 C 79 % 1023,5 hPa 0,0 l/m N 0,00 h 0 W/m 0,3 km/h (0 Bft)
28.03.2015 00:00 1,1 C 81 % 1023,7 hPa 0,0 l/m N 0,00 h 0 W/m 0,0 km/h (0 Bft)
28.03.2015 01:00 -0,0 C 83 % 1023,6 hPa 0,0 l/m N 0,00 h 0 W/m 0,0 km/h (0 Bft)
28.03.2015 02:00 -0,7 C 86 % 1023,7 hPa 0,0 l/m N 0,00 h 0 W/m 0,0 km/h (0 Bft)
28.03.2015 03:00 -1,0 C 88 % 1023,9 hPa 0,0 l/m N 0,00 h 0 W/m 0,0 km/h (0 Bft)
28.03.2015 04:00 -1,0 C 90 % 1023,7 hPa 0,0 l/m N 0,00 h 0 W/m 0,0 km/h (0 Bft)
28.03.2015 05:00 -0,7 C 92 % 1023,8 hPa 0,0 l/m N 0,00 h 0 W/m 0,0 km/h (0 Bft)
28.03.2015 06:00 -0,2 C 93 % 1023,9 hPa 0,0 l/m N 0,00 h 18 W/m 0,3 km/h (0 Bft)
28.03.2015 07:00 0,7 C 92 % 1023,7 hPa 0,0 l/m W-NW 0,00 h 52 W/m 1,9 km/h (1 Bft)
28.03.2015 08:00 2,4 C 88 % 1023,3 hPa 0,0 l/m W-NW 0,50 h 235 W/m 0,8 km/h (0 Bft)
28.03.2015 09:00 5,9 C 74 % 1022,8 hPa 0,0 l/m S 1,00 h 468 W/m 5,1 km/h (1 Bft)
28.03.2015 10:00 7,9 C 64 % 1022,1 hPa 0,0 l/m SW 1,00 h 637 W/m 13,3 km/h (3 Bft)
28.03.2015 11:00 9,2 C 59 % 1021,3 hPa 0,0 l/m SW 0,83 h 616 W/m 16,0 km/h (3 Bft)
28.03.2015 12:00 10,2 C 54 % 1020,4 hPa 0,0 l/m W 0,92 h 733 W/m 18,6 km/h (3 Bft)
28.03.2015 13:00 11,4 C 51 % 1019,3 hPa 0,0 l/m W-SW 1,00 h 705 W/m 18,2 km/h (3 Bft)
28.03.2015 14:00 12,2 C 49 % 1018,3 hPa 0,0 l/m W-SW 1,00 h 635 W/m 20,5 km/h (4 Bft)
28.03.2015 15:00 12,6 C 48 % 1017,4 hPa 0,0 l/m W-SW 1,00 h 484 W/m 18,0 km/h (3 Bft)
28.03.2015 16:00 11,9 C 49 % 1017,1 hPa 0,0 l/m W-SW 0,42 h 193 W/m 19,4 km/h (3 Bft)
28.03.2015 17:00 11,0 C 52 % 1017,1 hPa 0,0 l/m SW 0,00 h 36 W/m 16,4 km/h (3 Bft)
28.03.2015 18:00 10,5 C 53 % 1017,6 hPa 0,0 l/m W-SW 0,00 h 7 W/m 23,6 km/h (4 Bft)
28.03.2015 19:00 8,0 C 75 % 1018,4 hPa 0,0 l/m W-SW 0,00 h 0 W/m 21,6 km/h (4 Bft)
28.03.2015 20:00 6,8 C 88 % 1018,2 hPa 0,4 l/m SW 0,00 h 0 W/m 12,9 km/h (3 Bft)
28.03.2015 21:00 6,2 C 92 % 1017,9 hPa 0,4 l/m W-SW 0,00 h 0 W/m 17,0 km/h (3 Bft)
28.03.2015 22:00 6,0 C 93 % 1017,4 hPa 0,0 l/m W-SW 0,00 h 0 W/m 17,2 km/h (3 Bft)
28.03.2015 23:00 6,0 C 94 % 1017,1 hPa 0,0 l/m SW 0,00 h 0 W/m 18,2 km/h (3 Bft)
29.03.2015 00:00 6,3 C 94 % 1016,8 hPa 0,0 l/m SW 0,00 h 0 W/m 15,2 km/h (3 Bft)
29.03.2015 01:00 6,6 C 95 % 1016,3 hPa 0,0 l/m SW 0,00 h 0 W/m 16,8 km/h (3 Bft)
29.03.2015 03:00 6,8 C 95 % 1015,7 hPa 0,0 l/m SW 0,00 h 0 W/m 17,4 km/h (3 Bft)
29.03.2015 04:00 7,1 C 93 % 1015,0 hPa 0,0 l/m SW 0,00 h 0 W/m 18,9 km/h (3 Bft)
29.03.2015 05:00 7,0 C 93 % 1013,9 hPa 0,0 l/m W-SW 0,00 h 0 W/m 21,1 km/h (4 Bft)
29.03.2015 06:00 7,6 C 92 % 1013,6 hPa 0,0 l/m W-SW 0,00 h 0 W/m 22,1 km/h (4 Bft)
29.03.2015 07:00 7,9 C 90 % 1012,9 hPa 0,0 l/m SW 0,00 h 16 W/m 23,1 km/h (4 Bft)
29.03.2015 08:00 7,9 C 90 % 1012,5 hPa 0,0 l/m W-SW 0,00 h 41 W/m 24,9 km/h (4 Bft)
29.03.2015 09:00 8,4 C 88 % 1012,2 hPa 0,0 l/m W-SW 0,00 h 60 W/m 24,8 km/h (4 Bft)
29.03.2015 10:00 9,3 C 84 % 1011,5 hPa 0,0 l/m W-SW 0,00 h 132 W/m 32,1 km/h (5 Bft)
29.03.2015 11:00 9,9 C 80 % 1010,6 hPa 0,0 l/m W-SW 0,00 h 157 W/m 33,9 km/h (5 Bft)
29.03.2015 12:00 10,3 C 78 % 1009,5 hPa 0,0 l/m W-SW 0,00 h 106 W/m 29,5 km/h (5 Bft)
29.03.2015 13:00 10,2 C 78 % 1009,0 hPa 0,2 l/m W 0,00 h 107 W/m 36,1 km/h (5 Bft)
29.03.2015 14:00 9,4 C 83 % 1008,4 hPa 0,0 l/m SW 0,00 h 90 W/m 33,0 km/h (5 Bft)
29.03.2015 15:00 9,4 C 80 % 1008,1 hPa 0,0 l/m SW 0,00 h 122 W/m 38,3 km/h (5 Bft)
29.03.2015 16:00 9,1 C 82 % 1007,6 hPa 0,0 l/m SW 0,00 h 73 W/m 40,8 km/h (6 Bft)
29.03.2015 17:00 8,6 C 85 % 1007,1 hPa 0,0 l/m SW 0,00 h 34 W/m 40,8 km/h (6 Bft)
29.03.2015 18:00 8,6 C 85 % 1006,3 hPa 0,0 l/m W-SW 0,00 h 29 W/m 44,0 km/h (6 Bft)
29.03.2015 19:00 8,8 C 86 % 1005,5 hPa 0,2 l/m W-SW 0,00 h 6 W/m 43,9 km/h (6 Bft)
29.03.2015 20:00 8,7 C 89 % 1004,7 hPa 0,2 l/m W-SW 0,00 h 0 W/m 40,9 km/h (6 Bft)
29.03.2015 21:00 8,6 C 91 % 1003,9 hPa 0,2 l/m W-SW 0,00 h 0 W/m 40,5 km/h (6 Bft)
29.03.2015 22:00 8,5 C 91 % 1003,5 hPa 1,0 l/m W-SW 0,00 h 0 W/m 39,2 km/h (6 Bft)
29.03.2015 23:00 8,2 C 93 % 1003,1 hPa 1,0 l/m W-SW 0,00 h 0 W/m 39,3 km/h (6 Bft)
Min-Datum _ 28.03.15 24.03.15 25.03.15 - - - - 23.03.15
_ Min-Zeit 03:55 15:15 16:15 - - - - 02:20
Minimum _ -1,2 C 40 % 998,9 hPa - - - - 0,0 km/h (0 Bft)
Max-Datum _ 24.03.15 24.03.15 28.03.15 26.03.15 - 23.03.15 27.03.15 29.03.15
_ Max-Zeit 16:05 05:05 03:00 05:05 - 12:35 12:50 13:30
Maximum _ 16,6 C 100 % 1024,0 hPa 1,2 l/m - 0,08 h 835 W/m 57,9 km/h
W (7 Bft)
Durchschnitt _ 6,6 C 80 % 1011,2 hPa #9,2 l/m W-SW #29:55 h 216 W/m 11,0 km/h (2 Bft)